sensor_id;sensor_type;location;lat;lon;timestamp;P1;durP1;ratioP1;P2;durP2;ratioP2
27151;SDS011;14677;53.520;7.274;2022-09-09T00:03:27;55.22;;;32.75;;
27151;SDS011;14677;53.520;7.274;2022-09-09T00:06:30;53.00;;;31.45;;
27151;SDS011;14677;53.520;7.274;2022-09-09T00:11:30;47.88;;;30.98;;
27151;SDS011;14677;53.520;7.274;2022-09-09T00:14:00;55.45;;;31.35;;
27151;SDS011;14677;53.520;7.274;2022-09-09T00:16:31;53.10;;;31.50;;
27151;SDS011;14677;53.520;7.274;2022-09-09T00:21:56;53.35;;;31.13;;
27151;SDS011;14677;53.520;7.274;2022-09-09T00:27:06;48.78;;;30.42;;
27151;SDS011;14677;53.520;7.274;2022-09-09T00:30:17;46.08;;;28.45;;
27151;SDS011;14677;53.520;7.274;2022-09-09T00:32:27;49.25;;;28.77;;
27151;SDS011;14677;53.520;7.274;2022-09-09T00:34:56;46.70;;;28.50;;
27151;SDS011;14677;53.520;7.274;2022-09-09T00:37:26;52.58;;;29.35;;
27151;SDS011;14677;53.520;7.274;2022-09-09T00:39:53;39.40;;;26.88;;
27151;SDS011;14677;53.520;7.274;2022-09-09T00:42:41;41.97;;;27.05;;
27151;SDS011;14677;53.520;7.274;2022-09-09T00:45:16;41.13;;;26.80;;
27151;SDS011;14677;53.520;7.274;2022-09-09T00:47:49;42.55;;;26.33;;
27151;SDS011;14677;53.520;7.274;2022-09-09T00:55:45;40.72;;;25.88;;
27151;SDS011;14677;53.520;7.274;2022-09-09T00:58:15;42.65;;;25.40;;
27151;SDS011;14677;53.520;7.274;2022-09-09T01:00:44;38.97;;;26.15;;
27151;SDS011;14677;53.520;7.274;2022-09-09T01:08:52;36.05;;;26.85;;
27151;SDS011;14677;53.520;7.274;2022-09-09T01:10:59;42.53;;;25.47;;
27151;SDS011;14677;53.520;7.274;2022-09-09T01:13:30;40.70;;;26.13;;
27151;SDS011;14677;53.520;7.274;2022-09-09T01:16:00;41.80;;;26.13;;
27151;SDS011;14677;53.520;7.274;2022-09-09T01:18:33;38.75;;;25.95;;
27151;SDS011;14677;53.520;7.274;2022-09-09T01:26:18;39.67;;;25.63;;
27151;SDS011;14677;53.520;7.274;2022-09-09T01:28:49;36.25;;;24.67;;
27151;SDS011;14677;53.520;7.274;2022-09-09T01:34:15;40.30;;;26.35;;
27151;SDS011;14677;53.520;7.274;2022-09-09T01:39:10;37.00;;;25.10;;
27151;SDS011;14677;53.520;7.274;2022-09-09T01:41:38;41.20;;;26.85;;
27151;SDS011;14677;53.520;7.274;2022-09-09T01:44:05;42.92;;;25.35;;
27151;SDS011;14677;53.520;7.274;2022-09-09T01:46:34;37.92;;;25.40;;
27151;SDS011;14677;53.520;7.274;2022-09-09T01:49:02;45.65;;;27.77;;
27151;SDS011;14677;53.520;7.274;2022-09-09T01:51:30;39.75;;;26.10;;
27151;SDS011;14677;53.520;7.274;2022-09-09T01:53:58;40.10;;;25.58;;
27151;SDS011;14677;53.520;7.274;2022-09-09T01:56:29;41.17;;;26.40;;
27151;SDS011;14677;53.520;7.274;2022-09-09T02:04:02;45.00;;;27.48;;
27151;SDS011;14677;53.520;7.274;2022-09-09T02:06:31;38.05;;;25.73;;
27151;SDS011;14677;53.520;7.274;2022-09-09T02:09:02;35.10;;;25.25;;
27151;SDS011;14677;53.520;7.274;2022-09-09T02:11:31;41.00;;;26.50;;
27151;SDS011;14677;53.520;7.274;2022-09-09T02:14:04;39.85;;;25.55;;
27151;SDS011;14677;53.520;7.274;2022-09-09T02:16:37;39.70;;;24.45;;
27151;SDS011;14677;53.520;7.274;2022-09-09T02:19:08;48.13;;;25.00;;
27151;SDS011;14677;53.520;7.274;2022-09-09T02:21:38;40.17;;;25.48;;
27151;SDS011;14677;53.520;7.274;2022-09-09T02:24:07;37.92;;;25.27;;
27151;SDS011;14677;53.520;7.274;2022-09-09T02:26:37;43.10;;;25.10;;
27151;SDS011;14677;53.520;7.274;2022-09-09T02:29:12;40.05;;;25.75;;
27151;SDS011;14677;53.520;7.274;2022-09-09T02:31:41;37.72;;;24.55;;
27151;SDS011;14677;53.520;7.274;2022-09-09T02:34:10;39.33;;;24.75;;
27151;SDS011;14677;53.520;7.274;2022-09-09T02:36:40;37.80;;;24.40;;
27151;SDS011;14677;53.520;7.274;2022-09-09T02:39:09;40.85;;;25.92;;
27151;SDS011;14677;53.520;7.274;2022-09-09T02:41:38;35.03;;;25.55;;
27151;SDS011;14677;53.520;7.274;2022-09-09T02:44:13;33.58;;;22.92;;
27151;SDS011;14677;53.520;7.274;2022-09-09T02:47:02;32.90;;;23.95;;
27151;SDS011;14677;53.520;7.274;2022-09-09T02:49:39;37.15;;;24.85;;
27151;SDS011;14677;53.520;7.274;2022-09-09T02:52:08;37.78;;;25.05;;
27151;SDS011;14677;53.520;7.274;2022-09-09T02:54:38;40.13;;;25.60;;
27151;SDS011;14677;53.520;7.274;2022-09-09T02:57:12;40.45;;;26.40;;
27151;SDS011;14677;53.520;7.274;2022-09-09T02:59:42;41.20;;;26.08;;
27151;SDS011;14677;53.520;7.274;2022-09-09T03:02:10;41.17;;;25.83;;
27151;SDS011;14677;53.520;7.274;2022-09-09T03:04:39;45.55;;;25.40;;
27151;SDS011;14677;53.520;7.274;2022-09-09T03:07:08;43.10;;;25.35;;
27151;SDS011;14677;53.520;7.274;2022-09-09T03:09:35;41.90;;;25.40;;
27151;SDS011;14677;53.520;7.274;2022-09-09T03:12:03;42.17;;;26.30;;
27151;SDS011;14677;53.520;7.274;2022-09-09T03:14:30;45.15;;;26.83;;
27151;SDS011;14677;53.520;7.274;2022-09-09T03:16:58;40.17;;;26.00;;
27151;SDS011;14677;53.520;7.274;2022-09-09T03:19:27;38.80;;;25.52;;
27151;SDS011;14677;53.520;7.274;2022-09-09T03:21:56;36.25;;;25.35;;
27151;SDS011;14677;53.520;7.274;2022-09-09T03:24:23;41.13;;;25.63;;
27151;SDS011;14677;53.520;7.274;2022-09-09T03:26:51;40.38;;;26.52;;
27151;SDS011;14677;53.520;7.274;2022-09-09T03:29:18;44.80;;;26.67;;
27151;SDS011;14677;53.520;7.274;2022-09-09T03:31:45;43.85;;;26.23;;
27151;SDS011;14677;53.520;7.274;2022-09-09T03:34:13;50.20;;;26.30;;
27151;SDS011;14677;53.520;7.274;2022-09-09T03:36:40;42.83;;;25.65;;
27151;SDS011;14677;53.520;7.274;2022-09-09T03:39:07;43.33;;;25.58;;
27151;SDS011;14677;53.520;7.274;2022-09-09T03:41:35;44.95;;;25.77;;
27151;SDS011;14677;53.520;7.274;2022-09-09T03:44:03;45.03;;;25.95;;
27151;SDS011;14677;53.520;7.274;2022-09-09T03:46:30;38.70;;;25.95;;
27151;SDS011;14677;53.520;7.274;2022-09-09T03:48:58;48.58;;;26.85;;
27151;SDS011;14677;53.520;7.274;2022-09-09T03:51:26;38.08;;;24.33;;
27151;SDS011;14677;53.520;7.274;2022-09-09T03:53:53;39.65;;;25.42;;
27151;SDS011;14677;53.520;7.274;2022-09-09T03:56:24;41.60;;;25.73;;
27151;SDS011;14677;53.520;7.274;2022-09-09T03:58:51;42.40;;;24.33;;
27151;SDS011;14677;53.520;7.274;2022-09-09T04:01:18;41.65;;;25.83;;
27151;SDS011;14677;53.520;7.274;2022-09-09T04:03:46;40.70;;;25.48;;
27151;SDS011;14677;53.520;7.274;2022-09-09T04:06:14;45.10;;;26.02;;
27151;SDS011;14677;53.520;7.274;2022-09-09T04:08:41;42.50;;;27.10;;
27151;SDS011;14677;53.520;7.274;2022-09-09T04:11:09;41.20;;;26.13;;
27151;SDS011;14677;53.520;7.274;2022-09-09T04:13:37;42.78;;;25.65;;
27151;SDS011;14677;53.520;7.274;2022-09-09T04:16:05;46.30;;;26.60;;
27151;SDS011;14677;53.520;7.274;2022-09-09T04:18:36;42.83;;;25.98;;
27151;SDS011;14677;53.520;7.274;2022-09-09T04:21:03;44.78;;;26.23;;
27151;SDS011;14677;53.520;7.274;2022-09-09T04:23:32;44.30;;;25.85;;
27151;SDS011;14677;53.520;7.274;2022-09-09T04:26:01;51.80;;;26.92;;
27151;SDS011;14677;53.520;7.274;2022-09-09T04:28:30;37.45;;;25.85;;
27151;SDS011;14677;53.520;7.274;2022-09-09T04:31:03;43.33;;;26.45;;
27151;SDS011;14677;53.520;7.274;2022-09-09T04:33:31;42.00;;;26.10;;
27151;SDS011;14677;53.520;7.274;2022-09-09T04:36:04;42.22;;;26.65;;
27151;SDS011;14677;53.520;7.274;2022-09-09T04:38:32;48.78;;;25.90;;
27151;SDS011;14677;53.520;7.274;2022-09-09T04:40:59;43.42;;;25.77;;
27151;SDS011;14677;53.520;7.274;2022-09-09T04:43:27;46.95;;;27.10;;
27151;SDS011;14677;53.520;7.274;2022-09-09T04:45:56;48.33;;;25.92;;
27151;SDS011;14677;53.520;7.274;2022-09-09T04:48:26;42.35;;;26.20;;
27151;SDS011;14677;53.520;7.274;2022-09-09T04:51:01;45.30;;;26.60;;
27151;SDS011;14677;53.520;7.274;2022-09-09T04:53:30;41.25;;;24.98;;
27151;SDS011;14677;53.520;7.274;2022-09-09T04:56:16;45.47;;;26.25;;
27151;SDS011;14677;53.520;7.274;2022-09-09T04:58:43;44.00;;;25.75;;
27151;SDS011;14677;53.520;7.274;2022-09-09T05:01:16;49.45;;;25.33;;
27151;SDS011;14677;53.520;7.274;2022-09-09T05:03:44;48.72;;;25.77;;
27151;SDS011;14677;53.520;7.274;2022-09-09T05:06:16;42.67;;;26.60;;
27151;SDS011;14677;53.520;7.274;2022-09-09T05:08:44;44.88;;;25.58;;
27151;SDS011;14677;53.520;7.274;2022-09-09T05:11:15;41.08;;;26.17;;
27151;SDS011;14677;53.520;7.274;2022-09-09T05:13:42;41.45;;;25.33;;
27151;SDS011;14677;53.520;7.274;2022-09-09T05:16:10;44.70;;;25.80;;
27151;SDS011;14677;53.520;7.274;2022-09-09T05:18:38;45.88;;;25.50;;
27151;SDS011;14677;53.520;7.274;2022-09-09T05:21:06;39.60;;;25.08;;
27151;SDS011;14677;53.520;7.274;2022-09-09T05:23:34;49.42;;;24.38;;
27151;SDS011;14677;53.520;7.274;2022-09-09T05:26:01;38.65;;;24.02;;
27151;SDS011;14677;53.520;7.274;2022-09-09T05:28:29;45.47;;;25.77;;
27151;SDS011;14677;53.520;7.274;2022-09-09T05:31:01;38.97;;;24.67;;
27151;SDS011;14677;53.520;7.274;2022-09-09T05:33:31;39.13;;;23.42;;
27151;SDS011;14677;53.520;7.274;2022-09-09T05:36:21;39.03;;;24.13;;
27151;SDS011;14677;53.520;7.274;2022-09-09T05:38:47;38.75;;;23.83;;
27151;SDS011;14677;53.520;7.274;2022-09-09T05:41:16;41.03;;;24.10;;
27151;SDS011;14677;53.520;7.274;2022-09-09T05:43:44;36.40;;;23.15;;
27151;SDS011;14677;53.520;7.274;2022-09-09T05:46:13;30.58;;;21.88;;
27151;SDS011;14677;53.520;7.274;2022-09-09T05:48:42;40.10;;;22.88;;
27151;SDS011;14677;53.520;7.274;2022-09-09T05:51:10;44.20;;;24.38;;
27151;SDS011;14677;53.520;7.274;2022-09-09T05:53:38;39.40;;;23.30;;
27151;SDS011;14677;53.520;7.274;2022-09-09T05:56:07;37.47;;;22.75;;
27151;SDS011;14677;53.520;7.274;2022-09-09T05:58:37;40.00;;;22.90;;
27151;SDS011;14677;53.520;7.274;2022-09-09T06:01:08;43.88;;;24.27;;
27151;SDS011;14677;53.520;7.274;2022-09-09T06:03:40;30.85;;;21.85;;
27151;SDS011;14677;53.520;7.274;2022-09-09T06:06:08;40.65;;;22.55;;
27151;SDS011;14677;53.520;7.274;2022-09-09T06:08:37;34.60;;;21.77;;
27151;SDS011;14677;53.520;7.274;2022-09-09T06:11:06;33.00;;;20.48;;
27151;SDS011;14677;53.520;7.274;2022-09-09T06:13:33;34.88;;;20.55;;
27151;SDS011;14677;53.520;7.274;2022-09-09T06:16:01;32.03;;;19.95;;
27151;SDS011;14677;53.520;7.274;2022-09-09T06:18:28;32.95;;;18.20;;
27151;SDS011;14677;53.520;7.274;2022-09-09T06:20:59;23.85;;;15.93;;
27151;SDS011;14677;53.520;7.274;2022-09-09T06:23:27;39.05;;;15.65;;
27151;SDS011;14677;53.520;7.274;2022-09-09T06:26:05;30.77;;;14.25;;
27151;SDS011;14677;53.520;7.274;2022-09-09T06:28:33;21.65;;;11.95;;
27151;SDS011;14677;53.520;7.274;2022-09-09T06:31:01;22.60;;;12.32;;
27151;SDS011;14677;53.520;7.274;2022-09-09T06:33:36;20.52;;;13.15;;
27151;SDS011;14677;53.520;7.274;2022-09-09T06:36:07;24.52;;;14.70;;
27151;SDS011;14677;53.520;7.274;2022-09-09T06:38:34;24.52;;;16.25;;
27151;SDS011;14677;53.520;7.274;2022-09-09T06:41:02;24.77;;;15.07;;
27151;SDS011;14677;53.520;7.274;2022-09-09T06:43:29;23.88;;;15.43;;
27151;SDS011;14677;53.520;7.274;2022-09-09T06:45:58;27.63;;;15.20;;
27151;SDS011;14677;53.520;7.274;2022-09-09T06:48:26;29.08;;;14.88;;
27151;SDS011;14677;53.520;7.274;2022-09-09T06:51:00;26.50;;;14.30;;
27151;SDS011;14677;53.520;7.274;2022-09-09T06:53:28;22.20;;;12.57;;
27151;SDS011;14677;53.520;7.274;2022-09-09T06:55:56;24.98;;;12.95;;
27151;SDS011;14677;53.520;7.274;2022-09-09T06:58:23;22.05;;;12.77;;
27151;SDS011;14677;53.520;7.274;2022-09-09T07:00:50;18.63;;;13.15;;
27151;SDS011;14677;53.520;7.274;2022-09-09T07:03:19;24.20;;;13.68;;
27151;SDS011;14677;53.520;7.274;2022-09-09T07:05:53;25.17;;;13.98;;
27151;SDS011;14677;53.520;7.274;2022-09-09T07:08:21;22.75;;;13.38;;
27151;SDS011;14677;53.520;7.274;2022-09-09T07:10:48;21.00;;;13.60;;
27151;SDS011;14677;53.520;7.274;2022-09-09T07:13:17;24.92;;;13.60;;
27151;SDS011;14677;53.520;7.274;2022-09-09T07:15:47;18.92;;;12.98;;
27151;SDS011;14677;53.520;7.274;2022-09-09T07:18:14;30.60;;;14.05;;
27151;SDS011;14677;53.520;7.274;2022-09-09T07:20:41;21.80;;;13.07;;
27151;SDS011;14677;53.520;7.274;2022-09-09T07:23:09;19.60;;;13.20;;
27151;SDS011;14677;53.520;7.274;2022-09-09T07:25:36;20.40;;;12.93;;
27151;SDS011;14677;53.520;7.274;2022-09-09T07:28:03;24.23;;;12.98;;
27151;SDS011;14677;53.520;7.274;2022-09-09T07:30:31;22.00;;;12.15;;
27151;SDS011;14677;53.520;7.274;2022-09-09T07:32:58;16.95;;;11.90;;
27151;SDS011;14677;53.520;7.274;2022-09-09T07:35:26;25.67;;;11.88;;
27151;SDS011;14677;53.520;7.274;2022-09-09T07:37:53;16.63;;;11.57;;
27151;SDS011;14677;53.520;7.274;2022-09-09T07:40:20;18.45;;;11.65;;
27151;SDS011;14677;53.520;7.274;2022-09-09T07:42:48;17.55;;;11.27;;
27151;SDS011;14677;53.520;7.274;2022-09-09T07:45:15;16.73;;;11.60;;
27151;SDS011;14677;53.520;7.274;2022-09-09T07:47:42;16.73;;;12.82;;
27151;SDS011;14677;53.520;7.274;2022-09-09T07:50:10;19.20;;;11.70;;
27151;SDS011;14677;53.520;7.274;2022-09-09T07:52:37;17.70;;;11.63;;
27151;SDS011;14677;53.520;7.274;2022-09-09T07:55:05;18.42;;;10.85;;
27151;SDS011;14677;53.520;7.274;2022-09-09T07:57:32;17.33;;;12.00;;
27151;SDS011;14677;53.520;7.274;2022-09-09T07:59:59;17.13;;;11.00;;
27151;SDS011;14677;53.520;7.274;2022-09-09T08:02:27;19.95;;;11.70;;
27151;SDS011;14677;53.520;7.274;2022-09-09T08:04:55;17.77;;;11.85;;
27151;SDS011;14677;53.520;7.274;2022-09-09T08:07:22;19.70;;;11.80;;
27151;SDS011;14677;53.520;7.274;2022-09-09T08:09:50;23.50;;;11.40;;
27151;SDS011;14677;53.520;7.274;2022-09-09T08:12:17;18.55;;;10.90;;
27151;SDS011;14677;53.520;7.274;2022-09-09T08:14:45;13.30;;;10.52;;
27151;SDS011;14677;53.520;7.274;2022-09-09T08:17:13;19.02;;;11.40;;
27151;SDS011;14677;53.520;7.274;2022-09-09T08:19:40;17.85;;;10.60;;
27151;SDS011;14677;53.520;7.274;2022-09-09T08:22:07;18.15;;;10.95;;
27151;SDS011;14677;53.520;7.274;2022-09-09T08:24:35;21.90;;;10.82;;
27151;SDS011;14677;53.520;7.274;2022-09-09T08:27:11;14.88;;;10.70;;
27151;SDS011;14677;53.520;7.274;2022-09-09T08:30:07;12.98;;;9.75;;
27151;SDS011;14677;53.520;7.274;2022-09-09T08:32:35;16.95;;;11.13;;
27151;SDS011;14677;53.520;7.274;2022-09-09T08:35:05;15.18;;;10.73;;
27151;SDS011;14677;53.520;7.274;2022-09-09T08:37:33;9.70;;;7.50;;
27151;SDS011;14677;53.520;7.274;2022-09-09T08:40:00;7.63;;;6.25;;
27151;SDS011;14677;53.520;7.274;2022-09-09T08:45:06;4.80;;;4.40;;
27151;SDS011;14677;53.520;7.274;2022-09-09T08:50:23;6.70;;;4.40;;
27151;SDS011;14677;53.520;7.274;2022-09-09T08:56:14;8.90;;;3.83;;
27151;SDS011;14677;53.520;7.274;2022-09-09T08:58:19;4.50;;;4.10;;
27151;SDS011;14677;53.520;7.274;2022-09-09T09:10:42;4.63;;;3.70;;
27151;SDS011;14677;53.520;7.274;2022-09-09T09:13:18;6.30;;;3.53;;
27151;SDS011;14677;53.520;7.274;2022-09-09T09:15:53;3.78;;;3.38;;
27151;SDS011;14677;53.520;7.274;2022-09-09T09:18:23;9.23;;;3.75;;
27151;SDS011;14677;53.520;7.274;2022-09-09T09:21:04;3.85;;;3.25;;
27151;SDS011;14677;53.520;7.274;2022-09-09T09:23:44;5.72;;;3.85;;
27151;SDS011;14677;53.520;7.274;2022-09-09T09:26:12;9.90;;;3.95;;
27151;SDS011;14677;53.520;7.274;2022-09-09T09:28:40;5.20;;;3.95;;
27151;SDS011;14677;53.520;7.274;2022-09-09T09:31:09;4.88;;;3.97;;
27151;SDS011;14677;53.520;7.274;2022-09-09T09:33:50;7.47;;;3.85;;
27151;SDS011;14677;53.520;7.274;2022-09-09T09:36:19;5.38;;;3.53;;
27151;SDS011;14677;53.520;7.274;2022-09-09T09:38:57;5.10;;;4.70;;
27151;SDS011;14677;53.520;7.274;2022-09-09T09:41:46;7.28;;;4.78;;
27151;SDS011;14677;53.520;7.274;2022-09-09T09:44:30;5.45;;;4.30;;
27151;SDS011;14677;53.520;7.274;2022-09-09T09:47:07;5.18;;;4.10;;
27151;SDS011;14677;53.520;7.274;2022-09-09T09:49:35;6.43;;;4.25;;
27151;SDS011;14677;53.520;7.274;2022-09-09T09:52:03;6.50;;;4.28;;
27151;SDS011;14677;53.520;7.274;2022-09-09T09:57:10;6.93;;;4.00;;
27151;SDS011;14677;53.520;7.274;2022-09-09T09:59:38;6.78;;;3.53;;
27151;SDS011;14677;53.520;7.274;2022-09-09T10:04:40;5.72;;;3.22;;
27151;SDS011;14677;53.520;7.274;2022-09-09T10:07:11;6.18;;;3.22;;
27151;SDS011;14677;53.520;7.274;2022-09-09T10:09:39;4.90;;;3.13;;
27151;SDS011;14677;53.520;7.274;2022-09-09T10:15:13;4.22;;;2.80;;
27151;SDS011;14677;53.520;7.274;2022-09-09T10:26:08;5.43;;;2.85;;
27151;SDS011;14677;53.520;7.274;2022-09-09T10:36:33;8.90;;;2.83;;
27151;SDS011;14677;53.520;7.274;2022-09-09T10:39:03;5.70;;;3.05;;
27151;SDS011;14677;53.520;7.274;2022-09-09T10:41:35;4.07;;;2.60;;
27151;SDS011;14677;53.520;7.274;2022-09-09T10:47:31;5.88;;;3.00;;
27151;SDS011;14677;53.520;7.274;2022-09-09T10:52:09;4.90;;;2.08;;
27151;SDS011;14677;53.520;7.274;2022-09-09T10:57:28;9.68;;;2.65;;
27151;SDS011;14677;53.520;7.274;2022-09-09T10:59:57;4.43;;;2.30;;
27151;SDS011;14677;53.520;7.274;2022-09-09T11:02:27;6.25;;;2.63;;
27151;SDS011;14677;53.520;7.274;2022-09-09T11:05:05;4.20;;;1.70;;
27151;SDS011;14677;53.520;7.274;2022-09-09T11:10:04;7.25;;;2.95;;
27151;SDS011;14677;53.520;7.274;2022-09-09T11:12:33;3.25;;;2.20;;
27151;SDS011;14677;53.520;7.274;2022-09-09T11:17:45;3.95;;;2.55;;
27151;SDS011;14677;53.520;7.274;2022-09-09T11:25:15;10.50;;;2.05;;
27151;SDS011;14677;53.520;7.274;2022-09-09T11:30:20;8.73;;;2.30;;
27151;SDS011;14677;53.520;7.274;2022-09-09T11:35:43;10.23;;;2.65;;
27151;SDS011;14677;53.520;7.274;2022-09-09T11:40:41;8.73;;;2.03;;
27151;SDS011;14677;53.520;7.274;2022-09-09T11:45:40;6.57;;;1.98;;
27151;SDS011;14677;53.520;7.274;2022-09-09T11:51:02;13.40;;;2.22;;
27151;SDS011;14677;53.520;7.274;2022-09-09T11:53:31;6.07;;;2.00;;
27151;SDS011;14677;53.520;7.274;2022-09-09T11:56:00;8.38;;;1.60;;
27151;SDS011;14677;53.520;7.274;2022-09-09T11:58:28;12.18;;;2.08;;
27151;SDS011;14677;53.520;7.274;2022-09-09T12:00:59;8.15;;;1.70;;
27151;SDS011;14677;53.520;7.274;2022-09-09T12:03:38;7.25;;;1.65;;
27151;SDS011;14677;53.520;7.274;2022-09-09T12:06:09;8.80;;;2.00;;
27151;SDS011;14677;53.520;7.274;2022-09-09T12:08:37;6.65;;;1.70;;
27151;SDS011;14677;53.520;7.274;2022-09-09T12:11:08;9.00;;;1.63;;
27151;SDS011;14677;53.520;7.274;2022-09-09T12:13:35;6.03;;;1.60;;
27151;SDS011;14677;53.520;7.274;2022-09-09T12:16:03;6.43;;;1.50;;
27151;SDS011;14677;53.520;7.274;2022-09-09T12:18:33;8.23;;;1.70;;
27151;SDS011;14677;53.520;7.274;2022-09-09T12:21:21;6.85;;;1.92;;
27151;SDS011;14677;53.520;7.274;2022-09-09T12:23:58;7.85;;;1.70;;
27151;SDS011;14677;53.520;7.274;2022-09-09T12:26:38;6.60;;;1.52;;
27151;SDS011;14677;53.520;7.274;2022-09-09T12:29:11;8.07;;;1.50;;
27151;SDS011;14677;53.520;7.274;2022-09-09T12:32:00;9.43;;;1.50;;
27151;SDS011;14677;53.520;7.274;2022-09-09T12:37:05;7.65;;;1.48;;
27151;SDS011;14677;53.520;7.274;2022-09-09T12:39:34;7.78;;;1.88;;
27151;SDS011;14677;53.520;7.274;2022-09-09T12:42:03;9.10;;;1.80;;
27151;SDS011;14677;53.520;7.274;2022-09-09T12:44:30;7.32;;;1.73;;
27151;SDS011;14677;53.520;7.274;2022-09-09T12:47:00;6.68;;;1.80;;
27151;SDS011;14677;53.520;7.274;2022-09-09T12:49:32;11.93;;;2.10;;
27151;SDS011;14677;53.520;7.274;2022-09-09T12:52:03;8.20;;;1.73;;
27151;SDS011;14677;53.520;7.274;2022-09-09T12:54:34;8.15;;;1.50;;
27151;SDS011;14677;53.520;7.274;2022-09-09T12:57:03;6.53;;;1.80;;
27151;SDS011;14677;53.520;7.274;2022-09-09T12:59:37;8.27;;;1.77;;
27151;SDS011;14677;53.520;7.274;2022-09-09T13:02:19;8.23;;;1.52;;
27151;SDS011;14677;53.520;7.274;2022-09-09T13:04:46;6.40;;;1.70;;
27151;SDS011;14677;53.520;7.274;2022-09-09T13:07:15;3.80;;;1.20;;
27151;SDS011;14677;53.520;7.274;2022-09-09T13:09:44;7.10;;;1.55;;
27151;SDS011;14677;53.520;7.274;2022-09-09T13:12:13;5.25;;;1.42;;
27151;SDS011;14677;53.520;7.274;2022-09-09T13:14:42;5.13;;;1.50;;
27151;SDS011;14677;53.520;7.274;2022-09-09T13:17:22;4.88;;;0.95;;
27151;SDS011;14677;53.520;7.274;2022-09-09T13:19:50;7.63;;;1.30;;
27151;SDS011;14677;53.520;7.274;2022-09-09T13:22:33;5.57;;;1.20;;
27151;SDS011;14677;53.520;7.274;2022-09-09T13:25:17;5.40;;;1.33;;
27151;SDS011;14677;53.520;7.274;2022-09-09T13:30:33;5.22;;;1.10;;
27151;SDS011;14677;53.520;7.274;2022-09-09T13:38:16;5.97;;;1.40;;
27151;SDS011;14677;53.520;7.274;2022-09-09T13:40:57;8.80;;;1.30;;
27151;SDS011;14677;53.520;7.274;2022-09-09T13:43:28;6.22;;;1.52;;
27151;SDS011;14677;53.520;7.274;2022-09-09T13:45:57;6.88;;;1.50;;
27151;SDS011;14677;53.520;7.274;2022-09-09T13:48:24;8.05;;;1.60;;
27151;SDS011;14677;53.520;7.274;2022-09-09T13:50:59;6.82;;;1.23;;
27151;SDS011;14677;53.520;7.274;2022-09-09T13:53:27;5.38;;;1.17;;
27151;SDS011;14677;53.520;7.274;2022-09-09T13:55:54;6.15;;;1.45;;
27151;SDS011;14677;53.520;7.274;2022-09-09T13:58:23;5.78;;;1.55;;
27151;SDS011;14677;53.520;7.274;2022-09-09T14:00:52;5.10;;;1.30;;
27151;SDS011;14677;53.520;7.274;2022-09-09T14:03:20;3.38;;;0.95;;
27151;SDS011;14677;53.520;7.274;2022-09-09T14:05:47;3.80;;;1.15;;
27151;SDS011;14677;53.520;7.274;2022-09-09T14:08:18;2.05;;;0.82;;
27151;SDS011;14677;53.520;7.274;2022-09-09T14:10:47;4.07;;;0.98;;
27151;SDS011;14677;53.520;7.274;2022-09-09T14:13:15;5.53;;;1.05;;
27151;SDS011;14677;53.520;7.274;2022-09-09T14:15:42;3.28;;;1.25;;
27151;SDS011;14677;53.520;7.274;2022-09-09T14:18:11;5.60;;;1.15;;
27151;SDS011;14677;53.520;7.274;2022-09-09T14:20:39;7.03;;;1.02;;
27151;SDS011;14677;53.520;7.274;2022-09-09T14:23:09;4.13;;;1.02;;
27151;SDS011;14677;53.520;7.274;2022-09-09T14:25:39;6.47;;;1.60;;
27151;SDS011;14677;53.520;7.274;2022-09-09T14:28:10;6.63;;;1.38;;
27151;SDS011;14677;53.520;7.274;2022-09-09T14:30:39;7.93;;;1.67;;
27151;SDS011;14677;53.520;7.274;2022-09-09T14:33:07;3.92;;;1.13;;
27151;SDS011;14677;53.520;7.274;2022-09-09T14:35:35;7.63;;;1.13;;
27151;SDS011;14677;53.520;7.274;2022-09-09T14:38:03;4.35;;;1.35;;
27151;SDS011;14677;53.520;7.274;2022-09-09T14:40:30;8.05;;;1.15;;
27151;SDS011;14677;53.520;7.274;2022-09-09T14:42:57;3.72;;;1.05;;
27151;SDS011;14677;53.520;7.274;2022-09-09T14:45:25;3.47;;;1.38;;
27151;SDS011;14677;53.520;7.274;2022-09-09T14:47:52;6.60;;;1.38;;
27151;SDS011;14677;53.520;7.274;2022-09-09T14:50:20;6.35;;;1.30;;
27151;SDS011;14677;53.520;7.274;2022-09-09T14:52:48;4.28;;;1.30;;
27151;SDS011;14677;53.520;7.274;2022-09-09T14:55:16;6.18;;;1.40;;
27151;SDS011;14677;53.520;7.274;2022-09-09T14:57:44;7.05;;;1.52;;
27151;SDS011;14677;53.520;7.274;2022-09-09T15:00:11;7.97;;;1.27;;
27151;SDS011;14677;53.520;7.274;2022-09-09T15:02:39;6.68;;;1.60;;
27151;SDS011;14677;53.520;7.274;2022-09-09T15:05:07;2.78;;;1.80;;
27151;SDS011;14677;53.520;7.274;2022-09-09T15:07:34;8.00;;;2.25;;
27151;SDS011;14677;53.520;7.274;2022-09-09T15:10:02;9.32;;;2.53;;
27151;SDS011;14677;53.520;7.274;2022-09-09T15:12:29;7.72;;;2.85;;
27151;SDS011;14677;53.520;7.274;2022-09-09T15:14:57;6.53;;;3.10;;
27151;SDS011;14677;53.520;7.274;2022-09-09T15:17:25;5.63;;;3.00;;
27151;SDS011;14677;53.520;7.274;2022-09-09T15:19:53;10.02;;;2.90;;
27151;SDS011;14677;53.520;7.274;2022-09-09T15:22:21;5.55;;;2.72;;
27151;SDS011;14677;53.520;7.274;2022-09-09T15:24:48;7.40;;;2.92;;
27151;SDS011;14677;53.520;7.274;2022-09-09T15:27:23;6.15;;;3.00;;
27151;SDS011;14677;53.520;7.274;2022-09-09T15:29:50;5.30;;;2.58;;
27151;SDS011;14677;53.520;7.274;2022-09-09T15:32:18;5.43;;;2.35;;
27151;SDS011;14677;53.520;7.274;2022-09-09T15:34:45;5.20;;;2.30;;
27151;SDS011;14677;53.520;7.274;2022-09-09T15:37:12;6.28;;;1.80;;
27151;SDS011;14677;53.520;7.274;2022-09-09T15:39:40;5.20;;;2.58;;
27151;SDS011;14677;53.520;7.274;2022-09-09T15:42:07;4.78;;;1.90;;
27151;SDS011;14677;53.520;7.274;2022-09-09T15:44:38;3.97;;;2.13;;
27151;SDS011;14677;53.520;7.274;2022-09-09T15:47:05;6.65;;;2.22;;
27151;SDS011;14677;53.520;7.274;2022-09-09T15:49:33;5.28;;;2.28;;
27151;SDS011;14677;53.520;7.274;2022-09-09T15:52:00;5.50;;;2.60;;
27151;SDS011;14677;53.520;7.274;2022-09-09T15:54:33;5.25;;;2.15;;
27151;SDS011;14677;53.520;7.274;2022-09-09T15:57:02;6.35;;;2.70;;
27151;SDS011;14677;53.520;7.274;2022-09-09T15:59:30;6.30;;;3.30;;
27151;SDS011;14677;53.520;7.274;2022-09-09T16:01:58;4.88;;;3.60;;
27151;SDS011;14677;53.520;7.274;2022-09-09T16:04:26;7.32;;;3.60;;
27151;SDS011;14677;53.520;7.274;2022-09-09T16:06:56;7.28;;;3.47;;
27151;SDS011;14677;53.520;7.274;2022-09-09T16:09:25;10.95;;;3.47;;
27151;SDS011;14677;53.520;7.274;2022-09-09T16:11:53;4.35;;;2.97;;
27151;SDS011;14677;53.520;7.274;2022-09-09T16:14:22;8.93;;;2.38;;
27151;SDS011;14677;53.520;7.274;2022-09-09T16:16:50;5.88;;;3.22;;
27151;SDS011;14677;53.520;7.274;2022-09-09T16:19:18;6.80;;;2.92;;
27151;SDS011;14677;53.520;7.274;2022-09-09T16:21:46;6.70;;;3.72;;
27151;SDS011;14677;53.520;7.274;2022-09-09T16:24:14;6.68;;;3.38;;
27151;SDS011;14677;53.520;7.274;2022-09-09T16:26:44;7.70;;;3.65;;
27151;SDS011;14677;53.520;7.274;2022-09-09T16:29:13;5.55;;;3.22;;
27151;SDS011;14677;53.520;7.274;2022-09-09T16:31:41;7.88;;;4.38;;
27151;SDS011;14677;53.520;7.274;2022-09-09T16:34:09;5.88;;;3.42;;
27151;SDS011;14677;53.520;7.274;2022-09-09T16:36:37;10.68;;;5.70;;
27151;SDS011;14677;53.520;7.274;2022-09-09T16:39:11;10.85;;;5.15;;
27151;SDS011;14677;53.520;7.274;2022-09-09T16:41:39;4.07;;;2.90;;
27151;SDS011;14677;53.520;7.274;2022-09-09T16:44:08;7.22;;;3.47;;
27151;SDS011;14677;53.520;7.274;2022-09-09T16:46:36;6.80;;;3.60;;
27151;SDS011;14677;53.520;7.274;2022-09-09T16:49:05;5.35;;;2.85;;
27151;SDS011;14677;53.520;7.274;2022-09-09T16:51:36;11.10;;;6.22;;